createdAt,value
2019-01-14T00:00:36.753Z,50.17
2019-01-14T00:03:06.973Z,48.52
2019-01-14T00:05:37.217Z,48.95
2019-01-14T00:08:07.442Z,48.52
2019-01-14T00:10:37.702Z,48.17
2019-01-14T00:13:07.939Z,48.70
2019-01-14T00:15:38.197Z,47.50
2019-01-14T00:18:08.482Z,47.90
2019-01-14T00:20:38.737Z,47.38
2019-01-14T00:23:08.969Z,46.05
2019-01-14T00:25:39.201Z,46.35
2019-01-14T00:28:09.491Z,46.68
2019-01-14T00:30:39.710Z,46.42
2019-01-14T00:33:09.965Z,46.35
2019-01-14T00:35:40.184Z,45.75
2019-01-14T00:38:10.452Z,44.60
2019-01-14T00:40:40.674Z,44.80
2019-01-14T00:43:12.012Z,42.50
2019-01-14T00:45:42.327Z,42.80
2019-01-14T00:48:12.538Z,43.75
2019-01-14T00:50:42.855Z,44.18
2019-01-14T00:53:13.095Z,43.55
2019-01-14T00:55:43.347Z,42.80
2019-01-14T00:58:13.588Z,44.03
2019-01-14T01:00:43.838Z,41.75
2019-01-14T01:03:14.077Z,42.33
2019-01-14T01:05:44.332Z,41.77
2019-01-14T01:08:14.570Z,41.83
2019-01-14T01:10:44.843Z,40.58
2019-01-14T01:13:15.062Z,40.45
2019-01-14T01:15:45.306Z,40.05
2019-01-14T01:18:15.515Z,40.10
2019-01-14T01:20:45.937Z,39.98
2019-01-14T01:23:16.183Z,39.55
2019-01-14T01:25:46.808Z,38.10
2019-01-14T01:28:17.001Z,39.33
2019-01-14T01:30:47.221Z,39.70
2019-01-14T01:33:17.548Z,37.75
2019-01-14T01:35:47.844Z,38.00
2019-01-14T01:38:18.095Z,37.45
2019-01-14T01:40:48.359Z,37.53
2019-01-14T01:43:18.605Z,36.35
2019-01-14T01:45:50.025Z,36.33
2019-01-14T01:48:20.245Z,36.50
2019-01-14T01:50:50.567Z,36.05
2019-01-14T01:53:20.794Z,36.00
2019-01-14T01:55:51.150Z,34.88
2019-01-14T01:58:21.364Z,34.20
2019-01-14T02:00:51.610Z,34.98
2019-01-14T02:03:21.832Z,33.60
2019-01-14T02:05:52.241Z,33.25
2019-01-14T02:08:22.480Z,34.53
2019-01-14T02:10:52.704Z,33.13
2019-01-14T02:13:23.050Z,33.28
2019-01-14T02:15:53.268Z,32.60
2019-01-14T02:18:23.533Z,32.90
2019-01-14T02:20:53.738Z,32.10
2019-01-14T02:23:24.037Z,31.23
2019-01-14T02:25:54.324Z,31.35
2019-01-14T02:28:24.599Z,32.60
2019-01-14T02:30:54.801Z,31.10
2019-01-14T02:33:25.079Z,30.25
2019-01-14T02:35:55.657Z,31.17
2019-01-14T02:38:25.870Z,30.08
2019-01-14T02:40:56.134Z,28.60
2019-01-14T02:43:26.364Z,30.15
2019-01-14T02:45:56.614Z,29.12
2019-01-14T02:48:26.869Z,30.23
2019-01-14T02:50:57.079Z,28.75
2019-01-14T02:53:27.369Z,27.67
2019-01-14T02:55:57.588Z,28.45
2019-01-14T02:58:27.839Z,27.52
2019-01-14T03:00:58.055Z,27.98
2019-01-14T03:03:28.307Z,27.00
2019-01-14T03:05:58.549Z,26.90
2019-01-14T03:08:28.781Z,25.77
2019-01-14T03:10:59.024Z,26.12
2019-01-14T03:13:29.316Z,25.37
2019-01-14T03:15:59.571Z,25.30
2019-01-14T03:18:29.800Z,25.12
2019-01-14T03:21:00.020Z,26.05
2019-01-14T03:23:30.344Z,24.35
2019-01-14T03:26:00.560Z,24.87
2019-01-14T03:28:30.797Z,23.95
2019-01-14T03:31:01.024Z,24.47
2019-01-14T03:33:31.378Z,23.60
2019-01-14T03:36:01.796Z,24.25
2019-01-14T03:38:32.047Z,23.67
2019-01-14T03:41:02.263Z,23.35
2019-01-14T03:43:32.582Z,23.98
2019-01-14T03:46:02.877Z,23.50
2019-01-14T03:48:33.122Z,23.75
2019-01-14T03:51:03.366Z,22.80
2019-01-14T03:53:33.600Z,22.27
2019-01-14T03:56:03.847Z,22.35
2019-01-14T03:58:34.064Z,20.27
2019-01-14T04:01:04.325Z,20.62
2019-01-14T04:03:34.540Z,21.35
2019-01-14T04:06:04.798Z,21.77
2019-01-14T04:08:35.081Z,21.35
2019-01-14T04:11:05.342Z,20.57
2019-01-14T04:13:35.605Z,20.08
2019-01-14T04:16:05.815Z,18.95
2019-01-14T04:18:36.061Z,20.12
2019-01-14T04:21:06.275Z,20.10
2019-01-14T04:23:36.908Z,18.65
2019-01-14T04:26:07.151Z,19.52
2019-01-14T04:28:37.402Z,18.85
2019-01-14T04:31:07.640Z,19.50
2019-01-14T04:33:37.922Z,19.52
2019-01-14T04:36:08.179Z,19.05
2019-01-14T04:38:38.886Z,18.23
2019-01-14T04:41:09.731Z,18.05
2019-01-14T04:43:39.962Z,18.42
2019-01-14T04:46:10.373Z,17.32
2019-01-14T04:48:40.671Z,18.10
2019-01-14T04:51:10.890Z,18.35
2019-01-14T04:53:41.247Z,17.52
2019-01-14T04:56:11.474Z,17.92
2019-01-14T04:58:42.725Z,17.77
2019-01-14T05:01:12.951Z,18.25
2019-01-14T05:03:44.729Z,16.55
2019-01-14T05:06:15.090Z,17.57
2019-01-14T05:08:45.348Z,16.95
2019-01-14T05:11:15.563Z,16.55
2019-01-14T05:13:45.834Z,16.52
2019-01-14T05:16:16.182Z,16.07
2019-01-14T05:18:46.424Z,17.35
2019-01-14T05:21:16.900Z,17.90
2019-01-14T05:23:47.254Z,20.62
2019-01-14T05:26:17.759Z,23.62
2019-01-14T05:28:48.013Z,30.02
2019-01-14T05:31:18.277Z,32.10
2019-01-14T05:33:49.573Z,33.20
2019-01-14T05:36:20.232Z,34.40
2019-01-14T05:38:50.687Z,37.20
2019-01-14T05:41:21.173Z,41.23
2019-01-14T05:43:51.399Z,40.25
2019-01-14T05:46:21.643Z,43.78
2019-01-14T05:48:51.884Z,42.25
2019-01-14T05:51:22.110Z,42.95
2019-01-14T05:53:52.400Z,43.55
2019-01-14T05:56:24.860Z,43.38
2019-01-14T05:58:55.118Z,44.63
2019-01-14T06:01:25.397Z,45.80
2019-01-14T06:03:55.653Z,43.13
2019-01-14T06:06:25.908Z,43.30
2019-01-14T06:08:56.216Z,44.42
2019-01-14T06:11:26.462Z,44.27
2019-01-14T06:13:56.696Z,43.63
2019-01-14T06:16:27.010Z,45.95
2019-01-14T06:18:57.641Z,45.85
2019-01-14T06:21:27.897Z,44.90
2019-01-14T06:23:59.242Z,44.63
2019-01-14T06:26:29.889Z,47.23
2019-01-14T06:29:00.119Z,44.58
2019-01-14T06:31:30.375Z,44.53
2019-01-14T06:34:00.626Z,45.35
2019-01-14T06:36:30.842Z,45.45
2019-01-14T06:39:01.061Z,43.85
2019-01-14T06:41:32.363Z,43.60
2019-01-14T06:44:02.707Z,43.90
2019-01-14T06:46:32.927Z,44.00
2019-01-14T06:49:03.193Z,41.65
2019-01-14T06:51:33.522Z,45.03
2019-01-14T06:54:03.855Z,44.40
2019-01-14T06:56:34.120Z,43.15
2019-01-14T06:59:04.367Z,43.95
2019-01-14T07:01:34.643Z,41.48
2019-01-14T07:04:04.858Z,41.75
2019-01-14T07:06:35.114Z,42.40
2019-01-14T07:09:07.421Z,41.35
2019-01-14T07:11:38.514Z,42.67
2019-01-14T07:14:08.749Z,41.92
2019-01-14T07:16:39.077Z,43.25
2019-01-14T07:19:09.293Z,41.45
2019-01-14T07:21:39.513Z,43.55
2019-01-14T07:24:09.841Z,42.75
2019-01-14T07:26:40.433Z,41.05
2019-01-14T07:29:10.921Z,41.45
2019-01-14T07:31:41.135Z,40.58
2019-01-14T07:34:11.375Z,40.73
2019-01-14T07:36:41.606Z,39.35
2019-01-14T07:39:11.873Z,35.75
2019-01-14T07:41:42.185Z,37.17
2019-01-14T07:44:12.439Z,39.03
2019-01-14T07:46:42.657Z,38.08
2019-01-14T07:49:12.888Z,37.50
2019-01-14T07:51:43.122Z,41.75
2019-01-14T07:54:13.364Z,43.42
2019-01-14T07:56:44.402Z,39.63
2019-01-14T07:59:14.650Z,42.62
2019-01-14T08:01:44.904Z,39.40
2019-01-14T08:04:15.135Z,42.65
2019-01-14T08:06:45.372Z,42.60
2019-01-14T08:09:15.648Z,45.83
2019-01-14T08:11:45.884Z,49.25
2019-01-14T08:14:16.161Z,48.80
2019-01-14T08:16:46.386Z,48.83
2019-01-14T08:19:17.275Z,49.65
2019-01-14T08:21:47.494Z,49.13
2019-01-14T08:24:17.802Z,48.98
2019-01-14T08:26:48.119Z,46.60
2019-01-14T08:29:18.357Z,46.05
2019-01-14T08:31:48.681Z,48.60
2019-01-14T08:34:18.902Z,48.92
2019-01-14T08:36:49.191Z,48.10
2019-01-14T08:39:19.411Z,45.60
2019-01-14T08:41:54.622Z,47.95
2019-01-14T08:44:31.121Z,42.05
2019-01-14T08:47:01.577Z,44.40
2019-01-14T08:49:31.846Z,43.20
2019-01-14T08:52:02.084Z,45.63
2019-01-14T08:54:32.375Z,46.08
2019-01-14T08:57:02.630Z,47.98
2019-01-14T08:59:33.288Z,49.45
2019-01-14T09:02:03.512Z,49.93
2019-01-14T09:04:33.760Z,55.50
2019-01-14T09:07:04.184Z,56.20
2019-01-14T09:09:34.502Z,59.33
2019-01-14T09:12:04.768Z,61.88
2019-01-14T09:14:35.080Z,59.13
2019-01-14T09:17:05.343Z,56.55
2019-01-14T09:19:35.603Z,54.88
2019-01-14T09:22:05.918Z,57.73
2019-01-14T09:24:36.374Z,55.60
2019-01-14T09:27:06.587Z,56.68
2019-01-14T09:29:36.874Z,55.05
2019-01-14T09:32:07.135Z,55.92
2019-01-14T09:34:37.384Z,54.55
2019-01-14T09:37:07.608Z,58.48
2019-01-14T09:39:38.819Z,61.63
2019-01-14T09:42:09.055Z,65.72
2019-01-14T09:44:39.308Z,61.73
2019-01-14T09:47:10.170Z,61.88
2019-01-14T09:49:40.393Z,64.53
2019-01-14T09:52:10.638Z,68.62
2019-01-14T09:54:40.922Z,68.78
2019-01-14T09:57:11.140Z,65.40
2019-01-14T09:59:41.407Z,65.30
2019-01-14T10:02:11.661Z,63.80
2019-01-14T10:04:41.925Z,60.65
2019-01-14T10:07:12.157Z,60.83
2019-01-14T10:09:42.407Z,63.75
2019-01-14T10:12:12.629Z,64.42
2019-01-14T10:14:42.852Z,60.78
2019-01-14T10:17:14.004Z,63.95
2019-01-14T10:19:44.289Z,63.15
2019-01-14T10:22:14.552Z,64.65
2019-01-14T10:24:44.969Z,63.45
2019-01-14T10:27:15.230Z,62.43
2019-01-14T10:29:45.466Z,61.45
2019-01-14T10:32:15.788Z,61.25
2019-01-14T10:34:46.021Z,61.53
2019-01-14T10:37:22.660Z,63.52
2019-01-14T10:39:48.192Z,60.78
2019-01-14T10:42:18.420Z,60.78
2019-01-14T10:44:48.675Z,61.80
2019-01-14T10:47:20.084Z,62.65
2019-01-14T10:49:50.325Z,62.98
2019-01-14T10:52:20.560Z,63.60
2019-01-14T10:54:50.924Z,64.07
2019-01-14T10:57:21.798Z,60.60
2019-01-14T10:59:52.128Z,64.85
2019-01-14T11:02:22.365Z,62.88
2019-01-14T11:04:52.818Z,63.35
2019-01-14T11:07:23.066Z,64.05
2019-01-14T11:09:53.288Z,63.90
2019-01-14T11:12:23.553Z,65.67
2019-01-14T11:14:53.774Z,63.58
2019-01-14T11:17:24.030Z,66.92
2019-01-14T11:19:54.252Z,62.95
2019-01-14T11:22:24.513Z,64.50
2019-01-14T11:24:54.832Z,65.83
2019-01-14T11:27:25.175Z,65.30
2019-01-14T11:29:55.798Z,63.75
2019-01-14T11:32:27.092Z,65.37
2019-01-14T11:34:57.326Z,66.25
2019-01-14T11:37:27.600Z,63.13
2019-01-14T11:39:57.829Z,63.63
2019-01-14T11:42:28.125Z,65.50
2019-01-14T11:44:58.364Z,62.33
2019-01-14T11:47:28.574Z,66.42
2019-01-14T11:49:58.903Z,66.85
2019-01-14T11:52:29.141Z,64.95
2019-01-14T11:54:59.393Z,70.57
2019-01-14T11:57:29.741Z,66.92
2019-01-14T12:00:00.051Z,67.53
2019-01-14T12:02:30.378Z,67.47
2019-01-14T12:05:00.599Z,67.75
2019-01-14T12:07:30.861Z,65.97
2019-01-14T12:10:01.084Z,69.03
2019-01-14T12:12:31.339Z,67.65
2019-01-14T12:15:01.566Z,67.37
2019-01-14T12:17:31.795Z,65.87
2019-01-14T12:20:02.077Z,68.12
2019-01-14T12:22:32.382Z,68.62
2019-01-14T12:25:02.665Z,66.33
2019-01-14T12:27:32.914Z,65.65
2019-01-14T12:30:03.255Z,64.50
2019-01-14T12:32:34.723Z,64.70
2019-01-14T12:35:05.307Z,64.32
2019-01-14T12:37:35.526Z,65.50
2019-01-14T12:40:07.893Z,65.35
2019-01-14T12:42:38.271Z,67.08
2019-01-14T12:45:09.916Z,63.58
2019-01-14T12:47:40.351Z,62.00
2019-01-14T12:50:12.589Z,63.28
2019-01-14T12:52:43.861Z,64.42
2019-01-14T12:55:14.116Z,62.70
2019-01-14T12:57:44.374Z,64.00
2019-01-14T13:00:17.256Z,60.90
2019-01-14T13:02:47.492Z,60.60
2019-01-14T13:05:19.210Z,54.53
2019-01-14T13:07:49.446Z,56.23
2019-01-14T13:10:19.702Z,54.27
2019-01-14T13:12:50.598Z,54.18
2019-01-14T13:15:22.648Z,52.85
2019-01-14T13:17:52.955Z,53.55
2019-01-14T13:20:23.380Z,50.70
2019-01-14T13:22:53.603Z,51.68
2019-01-14T13:25:23.961Z,50.10
2019-01-14T13:27:54.252Z,50.30
2019-01-14T13:30:29.285Z,50.10
2019-01-14T13:32:59.882Z,47.83
2019-01-14T13:35:30.314Z,48.80
2019-01-14T13:38:00.842Z,46.33
2019-01-14T13:40:32.882Z,47.15
2019-01-14T13:43:03.105Z,46.28
2019-01-14T13:45:33.610Z,45.63
2019-01-14T13:48:03.988Z,45.75
2019-01-14T13:50:34.338Z,43.58
2019-01-14T13:53:04.659Z,43.52
2019-01-14T13:55:34.929Z,42.75
2019-01-14T13:58:05.296Z,42.45
2019-01-14T14:00:35.527Z,40.92
2019-01-14T14:03:05.858Z,41.37
2019-01-14T14:05:36.104Z,41.50
2019-01-14T14:08:06.411Z,39.83
2019-01-14T14:10:36.621Z,37.90
2019-01-14T14:13:06.882Z,37.23
2019-01-14T14:15:37.118Z,39.60
2019-01-14T14:18:07.391Z,39.18
2019-01-14T14:20:38.558Z,36.40
2019-01-14T14:23:09.308Z,37.70
2019-01-14T14:25:39.579Z,37.73
2019-01-14T14:28:09.796Z,37.60
2019-01-14T14:30:40.723Z,37.45
2019-01-14T14:33:10.960Z,36.50
2019-01-14T14:35:41.212Z,35.03
2019-01-14T14:38:12.527Z,36.65
2019-01-14T14:40:42.766Z,35.50
2019-01-14T14:43:12.986Z,37.70
2019-01-14T14:45:43.309Z,35.52
2019-01-14T14:48:13.674Z,39.08
2019-01-14T14:50:44.031Z,36.85
2019-01-14T14:53:14.237Z,36.50
2019-01-14T14:55:44.455Z,35.88
2019-01-14T14:58:14.676Z,36.28
2019-01-14T15:00:44.971Z,34.83
2019-01-14T15:03:15.229Z,36.10
2019-01-14T15:05:45.506Z,34.20
2019-01-14T15:08:15.894Z,33.78
2019-01-14T15:10:46.096Z,34.20
2019-01-14T15:13:16.432Z,34.05
2019-01-14T15:15:46.769Z,33.67
2019-01-14T15:18:17.967Z,32.50
2019-01-14T15:20:48.308Z,33.83
2019-01-14T15:23:18.527Z,31.02
2019-01-14T15:25:48.833Z,32.73
2019-01-14T15:28:19.122Z,32.42
2019-01-14T15:30:51.753Z,31.77
2019-01-14T15:33:23.206Z,32.05
2019-01-14T15:35:53.505Z,32.45
2019-01-14T15:38:23.719Z,32.60
2019-01-14T15:40:55.060Z,33.85
2019-01-14T15:43:25.304Z,33.65
2019-01-14T15:45:55.582Z,33.00
2019-01-14T15:48:25.909Z,33.23
2019-01-14T15:50:56.214Z,31.42
2019-01-14T15:53:26.840Z,32.13
2019-01-14T15:55:57.168Z,31.00
2019-01-14T15:58:27.444Z,31.65
2019-01-14T16:00:57.700Z,30.82
2019-01-14T16:03:28.106Z,29.32
2019-01-14T16:05:58.371Z,30.02
2019-01-14T16:08:28.604Z,30.88
2019-01-14T16:10:58.911Z,30.45
2019-01-14T16:13:29.209Z,32.23
2019-01-14T16:15:59.458Z,29.80
2019-01-14T16:18:29.836Z,31.85
2019-01-14T16:21:00.059Z,33.35
2019-01-14T16:23:30.309Z,33.48
2019-01-14T16:26:00.582Z,34.70
2019-01-14T16:28:30.876Z,36.85
2019-01-14T16:31:01.999Z,36.85
2019-01-14T16:33:32.260Z,39.10
2019-01-14T16:36:02.488Z,38.45
2019-01-14T16:38:33.728Z,37.88
2019-01-14T16:41:03.948Z,38.10
2019-01-14T16:43:34.212Z,38.53
2019-01-14T16:46:04.438Z,38.02
2019-01-14T16:48:34.752Z,37.20
2019-01-14T16:51:05.061Z,38.30
2019-01-14T16:53:35.283Z,39.33
2019-01-14T16:56:05.541Z,39.25
2019-01-14T16:58:35.784Z,42.03
2019-01-14T17:01:06.105Z,44.50
2019-01-14T17:03:36.336Z,43.35
2019-01-14T17:06:06.609Z,43.02
2019-01-14T17:08:37.854Z,44.33
2019-01-14T17:11:08.123Z,43.42
2019-01-14T17:13:38.467Z,44.20
2019-01-14T17:16:08.717Z,44.98
2019-01-14T17:18:39.039Z,45.23
2019-01-14T17:21:09.265Z,42.62
2019-01-14T17:23:39.596Z,42.40
2019-01-14T17:26:09.940Z,41.88
2019-01-14T17:28:40.215Z,41.35
2019-01-14T17:31:10.574Z,43.02
2019-01-14T17:33:40.862Z,41.53
2019-01-14T17:36:11.116Z,41.77
2019-01-14T17:38:41.424Z,42.13
2019-01-14T17:41:11.688Z,41.60
2019-01-14T17:43:41.927Z,40.95
2019-01-14T17:46:12.239Z,41.55
2019-01-14T17:48:42.738Z,41.88
2019-01-14T17:51:13.187Z,41.20
2019-01-14T17:53:43.480Z,41.45
2019-01-14T17:56:13.842Z,41.13
2019-01-14T17:58:44.097Z,40.60
2019-01-14T18:01:14.444Z,41.55
2019-01-14T18:03:44.706Z,42.25
2019-01-14T18:06:14.967Z,40.12
2019-01-14T18:08:45.389Z,41.08
2019-01-14T18:11:17.030Z,41.95
2019-01-14T18:13:47.323Z,44.98
2019-01-14T18:16:17.572Z,48.17
2019-01-14T18:18:47.853Z,47.05
2019-01-14T18:21:18.116Z,47.20
2019-01-14T18:23:48.465Z,49.42
2019-01-14T18:26:18.932Z,44.58
2019-01-14T18:28:49.238Z,47.13
2019-01-14T18:31:19.608Z,47.10
2019-01-14T18:33:49.869Z,47.50
2019-01-14T18:36:20.129Z,47.53
2019-01-14T18:38:50.440Z,46.42
2019-01-14T18:41:20.754Z,46.55
2019-01-14T18:43:51.052Z,45.83
2019-01-14T18:46:21.443Z,48.25
2019-01-14T18:48:51.761Z,47.75
2019-01-14T18:51:23.009Z,49.15
2019-01-14T18:53:53.545Z,50.95
2019-01-14T18:56:23.842Z,49.25
2019-01-14T18:58:54.988Z,52.45
2019-01-14T19:01:25.356Z,52.70
2019-01-14T19:03:55.638Z,53.75
2019-01-14T19:06:25.959Z,52.78
2019-01-14T19:08:56.221Z,54.73
2019-01-14T19:11:26.536Z,54.05
2019-01-14T19:13:56.759Z,53.92
2019-01-14T19:16:26.995Z,53.92
2019-01-14T19:18:57.259Z,51.92
2019-01-14T19:21:27.570Z,52.90
2019-01-14T19:23:59.875Z,52.65
2019-01-14T19:26:30.275Z,53.42
2019-01-14T19:29:00.534Z,54.93
2019-01-14T19:31:30.918Z,45.98
2019-01-14T19:34:01.242Z,45.67
2019-01-14T19:36:31.522Z,45.78
2019-01-14T19:39:01.777Z,43.70
2019-01-14T19:41:33.100Z,42.88
2019-01-14T19:44:03.387Z,42.48
2019-01-14T19:46:33.655Z,44.35
2019-01-14T19:49:03.961Z,44.00
2019-01-14T19:51:34.506Z,44.58
2019-01-14T19:54:04.803Z,45.88
2019-01-14T19:56:35.140Z,49.80
2019-01-14T19:59:05.380Z,48.55
2019-01-14T20:01:35.697Z,50.17
2019-01-14T20:04:06.086Z,46.92
2019-01-14T20:06:36.392Z,48.20
2019-01-14T20:09:06.955Z,49.65
2019-01-14T20:11:37.290Z,46.77
2019-01-14T20:14:07.652Z,47.40
2019-01-14T20:16:38.049Z,48.80
2019-01-14T20:19:09.465Z,51.35
2019-01-14T20:21:39.722Z,47.48
2019-01-14T20:24:10.002Z,48.48
2019-01-14T20:26:40.323Z,45.20
2019-01-14T20:29:10.651Z,45.78
2019-01-14T20:31:40.958Z,46.60
2019-01-14T20:34:11.230Z,46.48
2019-01-14T20:36:41.459Z,44.73
2019-01-14T20:39:11.736Z,46.18
2019-01-14T20:41:42.327Z,46.05
2019-01-14T20:44:12.566Z,45.80
2019-01-14T20:46:42.827Z,45.90
2019-01-14T20:49:13.139Z,43.78
2019-01-14T20:51:43.379Z,44.13
2019-01-14T20:54:13.672Z,44.15
2019-01-14T20:56:43.897Z,42.40
2019-01-14T20:59:14.203Z,43.52
2019-01-14T21:01:44.478Z,43.05
2019-01-14T21:04:14.787Z,42.25
2019-01-14T21:06:45.055Z,42.53
2019-01-14T21:09:15.288Z,42.43
2019-01-14T21:11:45.539Z,42.27
2019-01-14T21:14:15.792Z,42.30
2019-01-14T21:16:46.057Z,42.35
2019-01-14T21:19:16.391Z,40.75
2019-01-14T21:21:48.224Z,42.10
2019-01-14T21:24:18.494Z,40.43
2019-01-14T21:26:48.817Z,41.02
2019-01-14T21:29:19.100Z,40.40
2019-01-14T21:31:49.316Z,39.67
2019-01-14T21:34:19.568Z,39.83
2019-01-14T21:36:49.796Z,40.10
2019-01-14T21:39:20.875Z,39.75
2019-01-14T21:41:51.119Z,38.90
2019-01-14T21:44:21.354Z,37.95
2019-01-14T21:46:51.612Z,37.90
2019-01-14T21:49:21.847Z,38.78
2019-01-14T21:51:52.172Z,38.25
2019-01-14T21:54:22.415Z,38.90
2019-01-14T21:56:52.977Z,36.50
2019-01-14T21:59:23.288Z,37.67
2019-01-14T22:01:53.554Z,36.33
2019-01-14T22:04:23.815Z,37.15
2019-01-14T22:06:54.042Z,34.88
2019-01-14T22:09:24.292Z,35.50
2019-01-14T22:11:54.584Z,35.10
2019-01-14T22:14:24.850Z,35.92
2019-01-14T22:16:55.075Z,34.95
2019-01-14T22:19:25.323Z,33.67
2019-01-14T22:21:56.126Z,34.40
2019-01-14T22:24:26.352Z,34.48
2019-01-14T22:26:56.584Z,33.33
2019-01-14T22:29:26.836Z,34.63
2019-01-14T22:31:57.095Z,34.15
2019-01-14T22:34:27.322Z,33.30
2019-01-14T22:36:57.567Z,33.40
2019-01-14T22:39:27.794Z,31.95
2019-01-14T22:41:58.055Z,32.65
2019-01-14T22:44:28.285Z,32.20
2019-01-14T22:46:58.532Z,32.53
2019-01-14T22:49:28.779Z,31.75
2019-01-14T22:52:00.184Z,29.87
2019-01-14T22:54:30.426Z,31.05
2019-01-14T22:57:00.664Z,30.70
2019-01-14T22:59:30.975Z,29.48
2019-01-14T23:02:01.207Z,28.57
2019-01-14T23:04:31.548Z,29.98
2019-01-14T23:07:01.752Z,31.20
2019-01-14T23:09:32.082Z,30.25
2019-01-14T23:12:02.313Z,28.70
2019-01-14T23:14:32.640Z,28.45
2019-01-14T23:17:02.866Z,28.47
2019-01-14T23:19:33.164Z,29.12
2019-01-14T23:22:03.425Z,28.02
2019-01-14T23:24:33.635Z,27.82
2019-01-14T23:27:04.951Z,27.42
2019-01-14T23:29:35.198Z,27.60
2019-01-14T23:32:05.465Z,26.25
2019-01-14T23:34:35.676Z,26.77
2019-01-14T23:37:05.950Z,25.30
2019-01-14T23:39:36.159Z,25.27
2019-01-14T23:42:07.819Z,26.12
2019-01-14T23:44:38.036Z,25.85
2019-01-14T23:47:08.275Z,25.62
2019-01-14T23:49:38.554Z,26.12
2019-01-14T23:52:08.814Z,24.50
2019-01-14T23:54:39.109Z,25.52
2019-01-14T23:57:09.326Z,24.00
2019-01-14T23:59:39.559Z,24.00
